sensor_id;sensor_type;location;lat;lon;timestamp;P1;durP1;ratioP1;P2;durP2;ratioP2
17171;SDS011;8701;50.150;8.756;2023-07-09T00:02:54;9.10;;;3.90;;
17171;SDS011;8701;50.150;8.756;2023-07-09T00:06:57;9.00;;;3.83;;
17171;SDS011;8701;50.150;8.756;2023-07-09T00:11:02;5.80;;;3.80;;
17171;SDS011;8701;50.150;8.756;2023-07-09T00:15:07;7.10;;;4.27;;
17171;SDS011;8701;50.150;8.756;2023-07-09T00:19:12;6.30;;;4.13;;
17171;SDS011;8701;50.150;8.756;2023-07-09T00:23:16;5.87;;;3.87;;
17171;SDS011;8701;50.150;8.756;2023-07-09T00:27:20;6.27;;;3.53;;
17171;SDS011;8701;50.150;8.756;2023-07-09T00:31:26;7.03;;;4.13;;
17171;SDS011;8701;50.150;8.756;2023-07-09T00:35:29;5.70;;;3.90;;
17171;SDS011;8701;50.150;8.756;2023-07-09T00:39:31;5.23;;;3.80;;
17171;SDS011;8701;50.150;8.756;2023-07-09T00:43:34;7.20;;;3.77;;
17171;SDS011;8701;50.150;8.756;2023-07-09T00:47:41;9.03;;;4.03;;
17171;SDS011;8701;50.150;8.756;2023-07-09T00:51:50;4.80;;;3.50;;
17171;SDS011;8701;50.150;8.756;2023-07-09T00:55:54;8.10;;;4.63;;
17171;SDS011;8701;50.150;8.756;2023-07-09T01:00:03;9.70;;;3.80;;
17171;SDS011;8701;50.150;8.756;2023-07-09T01:04:12;5.83;;;4.27;;
17171;SDS011;8701;50.150;8.756;2023-07-09T01:08:18;5.97;;;3.53;;
17171;SDS011;8701;50.150;8.756;2023-07-09T01:12:21;5.07;;;3.43;;
17171;SDS011;8701;50.150;8.756;2023-07-09T01:16:26;6.93;;;4.10;;
17171;SDS011;8701;50.150;8.756;2023-07-09T01:20:32;5.17;;;3.77;;
17171;SDS011;8701;50.150;8.756;2023-07-09T01:24:53;7.17;;;3.43;;
17171;SDS011;8701;50.150;8.756;2023-07-09T01:29:01;5.90;;;4.10;;
17171;SDS011;8701;50.150;8.756;2023-07-09T01:33:04;5.23;;;4.00;;
17171;SDS011;8701;50.150;8.756;2023-07-09T01:37:08;5.50;;;3.97;;
17171;SDS011;8701;50.150;8.756;2023-07-09T01:41:12;6.97;;;4.17;;
17171;SDS011;8701;50.150;8.756;2023-07-09T01:45:14;6.60;;;3.87;;
17171;SDS011;8701;50.150;8.756;2023-07-09T01:49:17;6.60;;;4.27;;
17171;SDS011;8701;50.150;8.756;2023-07-09T01:53:21;6.37;;;3.70;;
17171;SDS011;8701;50.150;8.756;2023-07-09T01:57:28;5.13;;;3.40;;
17171;SDS011;8701;50.150;8.756;2023-07-09T02:01:33;6.47;;;4.30;;
17171;SDS011;8701;50.150;8.756;2023-07-09T02:05:38;5.90;;;4.10;;
17171;SDS011;8701;50.150;8.756;2023-07-09T02:09:40;5.90;;;3.73;;
17171;SDS011;8701;50.150;8.756;2023-07-09T02:13:44;5.90;;;3.50;;
17171;SDS011;8701;50.150;8.756;2023-07-09T02:17:46;7.07;;;3.53;;
17171;SDS011;8701;50.150;8.756;2023-07-09T02:21:48;6.60;;;4.40;;
17171;SDS011;8701;50.150;8.756;2023-07-09T02:25:51;8.70;;;3.57;;
17171;SDS011;8701;50.150;8.756;2023-07-09T02:29:54;8.63;;;4.03;;
17171;SDS011;8701;50.150;8.756;2023-07-09T02:33:57;7.10;;;3.80;;
17171;SDS011;8701;50.150;8.756;2023-07-09T02:37:59;8.83;;;4.03;;
17171;SDS011;8701;50.150;8.756;2023-07-09T02:42:01;5.70;;;3.87;;
17171;SDS011;8701;50.150;8.756;2023-07-09T02:46:05;5.30;;;3.97;;
17171;SDS011;8701;50.150;8.756;2023-07-09T02:50:08;6.50;;;3.83;;
17171;SDS011;8701;50.150;8.756;2023-07-09T02:54:10;6.13;;;3.97;;
17171;SDS011;8701;50.150;8.756;2023-07-09T02:58:13;4.80;;;3.90;;
17171;SDS011;8701;50.150;8.756;2023-07-09T03:02:16;6.50;;;4.20;;
17171;SDS011;8701;50.150;8.756;2023-07-09T03:06:18;6.13;;;3.70;;
17171;SDS011;8701;50.150;8.756;2023-07-09T03:10:21;5.10;;;4.23;;
17171;SDS011;8701;50.150;8.756;2023-07-09T03:14:24;6.50;;;3.97;;
17171;SDS011;8701;50.150;8.756;2023-07-09T03:18:28;5.23;;;3.63;;
17171;SDS011;8701;50.150;8.756;2023-07-09T03:22:30;10.13;;;4.10;;
17171;SDS011;8701;50.150;8.756;2023-07-09T03:26:32;8.83;;;4.63;;
17171;SDS011;8701;50.150;8.756;2023-07-09T03:30:34;8.30;;;4.50;;
17171;SDS011;8701;50.150;8.756;2023-07-09T03:34:38;6.47;;;3.80;;
17171;SDS011;8701;50.150;8.756;2023-07-09T03:38:40;8.00;;;3.60;;
17171;SDS011;8701;50.150;8.756;2023-07-09T03:42:43;5.70;;;4.03;;
17171;SDS011;8701;50.150;8.756;2023-07-09T03:46:45;5.80;;;3.50;;
17171;SDS011;8701;50.150;8.756;2023-07-09T03:50:48;6.77;;;4.47;;
17171;SDS011;8701;50.150;8.756;2023-07-09T03:54:51;8.33;;;4.80;;
17171;SDS011;8701;50.150;8.756;2023-07-09T03:58:53;6.93;;;4.73;;
17171;SDS011;8701;50.150;8.756;2023-07-09T04:02:55;9.80;;;4.33;;
17171;SDS011;8701;50.150;8.756;2023-07-09T04:06:59;5.43;;;4.30;;
17171;SDS011;8701;50.150;8.756;2023-07-09T04:11:01;17.00;;;5.10;;
17171;SDS011;8701;50.150;8.756;2023-07-09T04:15:05;10.10;;;5.87;;
17171;SDS011;8701;50.150;8.756;2023-07-09T04:19:07;11.03;;;5.00;;
17171;SDS011;8701;50.150;8.756;2023-07-09T04:23:11;12.43;;;4.47;;
17171;SDS011;8701;50.150;8.756;2023-07-09T04:27:14;9.70;;;4.90;;
17171;SDS011;8701;50.150;8.756;2023-07-09T04:31:16;6.53;;;5.00;;
17171;SDS011;8701;50.150;8.756;2023-07-09T04:35:19;6.27;;;4.50;;
17171;SDS011;8701;50.150;8.756;2023-07-09T04:39:22;9.33;;;6.40;;
17171;SDS011;8701;50.150;8.756;2023-07-09T04:43:25;8.70;;;4.67;;
17171;SDS011;8701;50.150;8.756;2023-07-09T04:47:27;7.77;;;4.97;;
17171;SDS011;8701;50.150;8.756;2023-07-09T04:51:29;5.17;;;4.13;;
17171;SDS011;8701;50.150;8.756;2023-07-09T04:55:33;10.90;;;5.03;;
17171;SDS011;8701;50.150;8.756;2023-07-09T04:59:35;7.77;;;5.33;;
17171;SDS011;8701;50.150;8.756;2023-07-09T05:03:38;9.10;;;4.87;;
17171;SDS011;8701;50.150;8.756;2023-07-09T05:07:40;11.20;;;4.97;;
17171;SDS011;8701;50.150;8.756;2023-07-09T05:11:44;6.67;;;5.10;;
17171;SDS011;8701;50.150;8.756;2023-07-09T05:15:48;7.60;;;5.20;;
17171;SDS011;8701;50.150;8.756;2023-07-09T05:19:51;8.80;;;5.60;;
17171;SDS011;8701;50.150;8.756;2023-07-09T05:23:53;7.33;;;5.63;;
17171;SDS011;8701;50.150;8.756;2023-07-09T05:27:57;7.90;;;5.83;;
17171;SDS011;8701;50.150;8.756;2023-07-09T05:31:59;10.40;;;5.87;;
17171;SDS011;8701;50.150;8.756;2023-07-09T05:36:01;10.33;;;5.70;;
17171;SDS011;8701;50.150;8.756;2023-07-09T05:40:04;9.50;;;6.07;;
17171;SDS011;8701;50.150;8.756;2023-07-09T05:44:09;10.07;;;6.13;;
17171;SDS011;8701;50.150;8.756;2023-07-09T05:48:11;10.80;;;7.13;;
17171;SDS011;8701;50.150;8.756;2023-07-09T05:52:13;6.80;;;4.63;;
17171;SDS011;8701;50.150;8.756;2023-07-09T05:56:15;9.10;;;5.43;;
17171;SDS011;8701;50.150;8.756;2023-07-09T06:00:19;10.47;;;4.33;;
17171;SDS011;8701;50.150;8.756;2023-07-09T06:04:21;10.20;;;5.53;;
17171;SDS011;8701;50.150;8.756;2023-07-09T06:08:25;6.50;;;4.90;;
17171;SDS011;8701;50.150;8.756;2023-07-09T06:12:28;6.90;;;5.20;;
17171;SDS011;8701;50.150;8.756;2023-07-09T06:16:31;9.27;;;5.70;;
17171;SDS011;8701;50.150;8.756;2023-07-09T06:20:33;11.10;;;6.20;;
17171;SDS011;8701;50.150;8.756;2023-07-09T06:24:36;6.23;;;4.70;;
17171;SDS011;8701;50.150;8.756;2023-07-09T06:28:38;8.10;;;5.03;;
17171;SDS011;8701;50.150;8.756;2023-07-09T06:32:41;9.40;;;5.50;;
17171;SDS011;8701;50.150;8.756;2023-07-09T06:36:43;6.63;;;4.90;;
17171;SDS011;8701;50.150;8.756;2023-07-09T06:40:46;5.73;;;5.03;;
17171;SDS011;8701;50.150;8.756;2023-07-09T06:44:48;7.47;;;5.27;;
17171;SDS011;8701;50.150;8.756;2023-07-09T06:48:51;19.70;;;5.47;;
17171;SDS011;8701;50.150;8.756;2023-07-09T06:52:54;7.77;;;4.70;;
17171;SDS011;8701;50.150;8.756;2023-07-09T06:56:56;7.47;;;4.80;;
17171;SDS011;8701;50.150;8.756;2023-07-09T07:01:00;7.20;;;4.20;;
17171;SDS011;8701;50.150;8.756;2023-07-09T07:05:05;6.33;;;5.47;;
17171;SDS011;8701;50.150;8.756;2023-07-09T07:09:07;7.63;;;4.30;;
17171;SDS011;8701;50.150;8.756;2023-07-09T07:13:10;5.43;;;4.53;;
17171;SDS011;8701;50.150;8.756;2023-07-09T07:17:13;11.30;;;5.63;;
17171;SDS011;8701;50.150;8.756;2023-07-09T07:21:16;9.90;;;5.33;;
17171;SDS011;8701;50.150;8.756;2023-07-09T07:25:18;9.30;;;4.90;;
17171;SDS011;8701;50.150;8.756;2023-07-09T07:29:21;7.80;;;3.80;;
17171;SDS011;8701;50.150;8.756;2023-07-09T07:33:23;5.90;;;5.20;;
17171;SDS011;8701;50.150;8.756;2023-07-09T07:37:26;7.30;;;4.50;;
17171;SDS011;8701;50.150;8.756;2023-07-09T07:41:28;7.27;;;4.30;;
17171;SDS011;8701;50.150;8.756;2023-07-09T07:45:31;6.30;;;4.07;;
17171;SDS011;8701;50.150;8.756;2023-07-09T07:49:33;7.37;;;4.57;;
17171;SDS011;8701;50.150;8.756;2023-07-09T07:53:36;7.47;;;4.27;;
17171;SDS011;8701;50.150;8.756;2023-07-09T07:57:39;6.53;;;4.00;;
17171;SDS011;8701;50.150;8.756;2023-07-09T08:01:41;9.30;;;4.20;;
17171;SDS011;8701;50.150;8.756;2023-07-09T08:05:47;9.47;;;4.13;;
17171;SDS011;8701;50.150;8.756;2023-07-09T08:09:51;8.47;;;4.10;;
17171;SDS011;8701;50.150;8.756;2023-07-09T08:13:53;3.67;;;3.37;;
17171;SDS011;8701;50.150;8.756;2023-07-09T08:17:56;3.90;;;3.27;;
17171;SDS011;8701;50.150;8.756;2023-07-09T08:21:58;6.00;;;5.10;;
17171;SDS011;8701;50.150;8.756;2023-07-09T08:26:02;9.30;;;3.77;;
17171;SDS011;8701;50.150;8.756;2023-07-09T08:30:05;4.77;;;3.73;;
17171;SDS011;8701;50.150;8.756;2023-07-09T08:34:08;3.93;;;3.50;;
17171;SDS011;8701;50.150;8.756;2023-07-09T08:38:10;7.17;;;3.57;;
17171;SDS011;8701;50.150;8.756;2023-07-09T08:42:16;4.07;;;3.40;;
17171;SDS011;8701;50.150;8.756;2023-07-09T08:46:25;3.80;;;3.40;;
17171;SDS011;8701;50.150;8.756;2023-07-09T08:50:36;3.80;;;3.40;;
17171;SDS011;8701;50.150;8.756;2023-07-09T08:54:41;5.17;;;3.93;;
17171;SDS011;8701;50.150;8.756;2023-07-09T08:58:47;4.27;;;3.87;;
17171;SDS011;8701;50.150;8.756;2023-07-09T09:02:52;4.40;;;4.00;;
17171;SDS011;8701;50.150;8.756;2023-07-09T09:07:00;6.73;;;4.37;;
17171;SDS011;8701;50.150;8.756;2023-07-09T09:11:13;5.20;;;4.33;;
17171;SDS011;8701;50.150;8.756;2023-07-09T09:15:22;3.60;;;3.30;;
17171;SDS011;8701;50.150;8.756;2023-07-09T09:19:26;6.40;;;3.80;;
17171;SDS011;8701;50.150;8.756;2023-07-09T09:23:31;5.27;;;3.57;;
17171;SDS011;8701;50.150;8.756;2023-07-09T09:27:40;4.40;;;3.97;;
17171;SDS011;8701;50.150;8.756;2023-07-09T09:31:44;7.30;;;3.70;;
17171;SDS011;8701;50.150;8.756;2023-07-09T09:36:00;6.90;;;3.70;;
17171;SDS011;8701;50.150;8.756;2023-07-09T09:40:08;4.20;;;3.40;;
17171;SDS011;8701;50.150;8.756;2023-07-09T09:44:16;4.07;;;3.17;;
17171;SDS011;8701;50.150;8.756;2023-07-09T09:48:28;3.17;;;2.93;;
17171;SDS011;8701;50.150;8.756;2023-07-09T09:52:31;3.67;;;3.30;;
17171;SDS011;8701;50.150;8.756;2023-07-09T09:56:35;4.03;;;3.23;;
17171;SDS011;8701;50.150;8.756;2023-07-09T10:00:39;3.70;;;3.10;;
17171;SDS011;8701;50.150;8.756;2023-07-09T10:04:42;3.60;;;3.30;;
17171;SDS011;8701;50.150;8.756;2023-07-09T10:08:48;3.03;;;2.83;;
17171;SDS011;8701;50.150;8.756;2023-07-09T10:12:58;5.17;;;3.03;;
17171;SDS011;8701;50.150;8.756;2023-07-09T10:17:11;3.20;;;2.70;;
17171;SDS011;8701;50.150;8.756;2023-07-09T10:21:23;4.77;;;2.80;;
17171;SDS011;8701;50.150;8.756;2023-07-09T10:25:34;3.97;;;3.03;;
17171;SDS011;8701;50.150;8.756;2023-07-09T10:34:17;4.50;;;2.70;;
17171;SDS011;8701;50.150;8.756;2023-07-09T10:38:38;3.10;;;2.90;;
17171;SDS011;8701;50.150;8.756;2023-07-09T10:42:48;3.23;;;2.93;;
17171;SDS011;8701;50.150;8.756;2023-07-09T10:46:56;2.90;;;2.60;;
17171;SDS011;8701;50.150;8.756;2023-07-09T10:51:01;6.37;;;2.90;;
17171;SDS011;8701;50.150;8.756;2023-07-09T10:55:08;3.87;;;3.10;;
17171;SDS011;8701;50.150;8.756;2023-07-09T10:59:20;5.23;;;3.00;;
17171;SDS011;8701;50.150;8.756;2023-07-09T11:03:28;4.30;;;3.20;;
17171;SDS011;8701;50.150;8.756;2023-07-09T11:07:41;3.33;;;2.60;;
17171;SDS011;8701;50.150;8.756;2023-07-09T11:11:49;3.57;;;2.90;;
17171;SDS011;8701;50.150;8.756;2023-07-09T11:15:55;2.93;;;2.63;;
17171;SDS011;8701;50.150;8.756;2023-07-09T11:19:59;2.77;;;2.57;;
17171;SDS011;8701;50.150;8.756;2023-07-09T11:28:37;3.63;;;2.77;;
17171;SDS011;8701;50.150;8.756;2023-07-09T11:32:44;3.87;;;2.70;;
17171;SDS011;8701;50.150;8.756;2023-07-09T11:36:48;3.90;;;2.97;;
17171;SDS011;8701;50.150;8.756;2023-07-09T11:40:53;4.00;;;2.80;;
17171;SDS011;8701;50.150;8.756;2023-07-09T11:44:59;3.87;;;3.07;;
17171;SDS011;8701;50.150;8.756;2023-07-09T11:49:07;2.80;;;2.23;;
17171;SDS011;8701;50.150;8.756;2023-07-09T11:53:18;3.10;;;2.70;;
17171;SDS011;8701;50.150;8.756;2023-07-09T11:57:29;12.33;;;3.13;;
17171;SDS011;8701;50.150;8.756;2023-07-09T12:01:34;2.90;;;2.60;;
17171;SDS011;8701;50.150;8.756;2023-07-09T12:05:42;4.50;;;3.43;;
17171;SDS011;8701;50.150;8.756;2023-07-09T12:09:50;5.80;;;3.00;;
17171;SDS011;8701;50.150;8.756;2023-07-09T12:13:54;5.20;;;3.27;;
17171;SDS011;8701;50.150;8.756;2023-07-09T12:18:09;3.30;;;3.00;;
17171;SDS011;8701;50.150;8.756;2023-07-09T12:22:15;3.77;;;2.73;;
17171;SDS011;8701;50.150;8.756;2023-07-09T12:26:20;3.53;;;3.20;;
17171;SDS011;8701;50.150;8.756;2023-07-09T12:30:22;5.07;;;2.83;;
17171;SDS011;8701;50.150;8.756;2023-07-09T12:34:26;2.87;;;2.63;;
17171;SDS011;8701;50.150;8.756;2023-07-09T12:38:38;4.30;;;3.37;;
17171;SDS011;8701;50.150;8.756;2023-07-09T12:42:43;5.00;;;3.10;;
17171;SDS011;8701;50.150;8.756;2023-07-09T12:46:48;4.63;;;3.30;;
17171;SDS011;8701;50.150;8.756;2023-07-09T12:50:54;5.67;;;3.20;;
17171;SDS011;8701;50.150;8.756;2023-07-09T12:54:57;5.73;;;3.57;;
17171;SDS011;8701;50.150;8.756;2023-07-09T12:59:01;7.77;;;3.97;;
17171;SDS011;8701;50.150;8.756;2023-07-09T13:03:12;7.63;;;3.37;;
17171;SDS011;8701;50.150;8.756;2023-07-09T13:07:29;7.47;;;3.60;;
17171;SDS011;8701;50.150;8.756;2023-07-09T13:11:35;5.00;;;3.50;;
17171;SDS011;8701;50.150;8.756;2023-07-09T13:15:38;2.93;;;2.60;;
17171;SDS011;8701;50.150;8.756;2023-07-09T13:19:43;5.83;;;3.43;;
17171;SDS011;8701;50.150;8.756;2023-07-09T13:23:46;4.87;;;3.80;;
17171;SDS011;8701;50.150;8.756;2023-07-09T13:27:49;3.33;;;3.00;;
17171;SDS011;8701;50.150;8.756;2023-07-09T13:31:51;4.07;;;3.33;;
17171;SDS011;8701;50.150;8.756;2023-07-09T13:35:54;3.77;;;3.30;;
17171;SDS011;8701;50.150;8.756;2023-07-09T13:39:57;6.93;;;3.50;;
17171;SDS011;8701;50.150;8.756;2023-07-09T13:44:00;3.00;;;2.77;;
17171;SDS011;8701;50.150;8.756;2023-07-09T13:48:04;4.00;;;3.50;;
17171;SDS011;8701;50.150;8.756;2023-07-09T13:52:13;5.60;;;3.53;;
17171;SDS011;8701;50.150;8.756;2023-07-09T13:56:19;4.40;;;3.43;;
17171;SDS011;8701;50.150;8.756;2023-07-09T14:00:22;4.90;;;2.90;;
17171;SDS011;8701;50.150;8.756;2023-07-09T14:04:26;8.30;;;3.63;;
17171;SDS011;8701;50.150;8.756;2023-07-09T14:08:29;3.57;;;3.10;;
17171;SDS011;8701;50.150;8.756;2023-07-09T14:12:33;5.10;;;3.60;;
17171;SDS011;8701;50.150;8.756;2023-07-09T14:16:38;5.70;;;3.30;;
17171;SDS011;8701;50.150;8.756;2023-07-09T14:20:40;5.07;;;3.53;;
17171;SDS011;8701;50.150;8.756;2023-07-09T14:24:43;5.23;;;3.50;;
17171;SDS011;8701;50.150;8.756;2023-07-09T14:28:46;4.47;;;4.00;;
17171;SDS011;8701;50.150;8.756;2023-07-09T14:32:49;5.40;;;3.40;;
17171;SDS011;8701;50.150;8.756;2023-07-09T14:36:53;4.60;;;3.33;;
17171;SDS011;8701;50.150;8.756;2023-07-09T14:40:56;4.50;;;3.27;;
17171;SDS011;8701;50.150;8.756;2023-07-09T14:45:15;5.23;;;3.80;;
17171;SDS011;8701;50.150;8.756;2023-07-09T14:49:19;3.97;;;2.93;;
17171;SDS011;8701;50.150;8.756;2023-07-09T14:53:23;4.93;;;3.50;;
17171;SDS011;8701;50.150;8.756;2023-07-09T14:57:27;4.73;;;3.50;;
17171;SDS011;8701;50.150;8.756;2023-07-09T15:01:31;6.77;;;3.30;;
17171;SDS011;8701;50.150;8.756;2023-07-09T15:05:34;3.80;;;3.03;;
17171;SDS011;8701;50.150;8.756;2023-07-09T15:09:36;5.57;;;3.57;;
17171;SDS011;8701;50.150;8.756;2023-07-09T15:13:39;8.43;;;3.60;;
17171;SDS011;8701;50.150;8.756;2023-07-09T15:17:42;6.87;;;3.67;;
17171;SDS011;8701;50.150;8.756;2023-07-09T15:21:44;4.20;;;3.80;;
17171;SDS011;8701;50.150;8.756;2023-07-09T15:25:47;6.17;;;3.50;;
17171;SDS011;8701;50.150;8.756;2023-07-09T15:29:50;4.83;;;3.60;;
17171;SDS011;8701;50.150;8.756;2023-07-09T15:33:53;5.27;;;3.70;;
17171;SDS011;8701;50.150;8.756;2023-07-09T15:37:56;6.67;;;3.60;;
17171;SDS011;8701;50.150;8.756;2023-07-09T15:41:58;4.50;;;3.17;;
17171;SDS011;8701;50.150;8.756;2023-07-09T15:46:00;4.77;;;3.23;;
17171;SDS011;8701;50.150;8.756;2023-07-09T15:50:12;6.10;;;3.80;;
17171;SDS011;8701;50.150;8.756;2023-07-09T15:54:16;5.90;;;4.23;;
17171;SDS011;8701;50.150;8.756;2023-07-09T15:58:21;4.90;;;3.60;;
17171;SDS011;8701;50.150;8.756;2023-07-09T16:02:26;3.23;;;2.80;;
17171;SDS011;8701;50.150;8.756;2023-07-09T16:06:29;4.90;;;3.57;;
17171;SDS011;8701;50.150;8.756;2023-07-09T16:10:34;4.47;;;3.43;;
17171;SDS011;8701;50.150;8.756;2023-07-09T16:14:36;7.00;;;3.87;;
17171;SDS011;8701;50.150;8.756;2023-07-09T16:18:38;4.03;;;3.63;;
17171;SDS011;8701;50.150;8.756;2023-07-09T16:22:43;4.60;;;3.27;;
17171;SDS011;8701;50.150;8.756;2023-07-09T16:26:49;5.20;;;3.33;;
17171;SDS011;8701;50.150;8.756;2023-07-09T16:30:52;5.27;;;3.53;;
17171;SDS011;8701;50.150;8.756;2023-07-09T16:34:56;4.97;;;3.60;;
17171;SDS011;8701;50.150;8.756;2023-07-09T16:39:00;3.90;;;3.40;;
17171;SDS011;8701;50.150;8.756;2023-07-09T16:43:04;6.33;;;3.57;;
17171;SDS011;8701;50.150;8.756;2023-07-09T16:47:15;5.97;;;3.30;;
17171;SDS011;8701;50.150;8.756;2023-07-09T16:51:18;5.67;;;3.10;;
17171;SDS011;8701;50.150;8.756;2023-07-09T16:55:23;4.47;;;3.13;;
17171;SDS011;8701;50.150;8.756;2023-07-09T16:59:27;3.60;;;3.13;;
17171;SDS011;8701;50.150;8.756;2023-07-09T17:03:29;3.50;;;2.97;;
17171;SDS011;8701;50.150;8.756;2023-07-09T17:07:32;4.63;;;3.53;;
17171;SDS011;8701;50.150;8.756;2023-07-09T17:11:36;6.40;;;3.60;;
17171;SDS011;8701;50.150;8.756;2023-07-09T17:15:39;3.40;;;3.10;;
17171;SDS011;8701;50.150;8.756;2023-07-09T17:19:43;6.20;;;3.27;;
17171;SDS011;8701;50.150;8.756;2023-07-09T17:23:46;5.77;;;3.33;;
17171;SDS011;8701;50.150;8.756;2023-07-09T17:27:50;5.60;;;3.07;;
17171;SDS011;8701;50.150;8.756;2023-07-09T17:31:52;6.20;;;3.30;;
17171;SDS011;8701;50.150;8.756;2023-07-09T17:35:54;9.43;;;3.47;;
17171;SDS011;8701;50.150;8.756;2023-07-09T17:39:57;5.87;;;3.17;;
17171;SDS011;8701;50.150;8.756;2023-07-09T17:44:01;7.73;;;3.57;;
17171;SDS011;8701;50.150;8.756;2023-07-09T17:48:04;5.73;;;2.77;;
17171;SDS011;8701;50.150;8.756;2023-07-09T17:52:15;4.00;;;3.00;;
17171;SDS011;8701;50.150;8.756;2023-07-09T17:56:19;6.40;;;3.10;;
17171;SDS011;8701;50.150;8.756;2023-07-09T18:00:26;7.93;;;3.50;;
17171;SDS011;8701;50.150;8.756;2023-07-09T18:04:29;4.40;;;2.90;;
17171;SDS011;8701;50.150;8.756;2023-07-09T18:08:31;16.13;;;3.13;;
17171;SDS011;8701;50.150;8.756;2023-07-09T18:12:34;5.83;;;2.90;;
17171;SDS011;8701;50.150;8.756;2023-07-09T18:16:37;6.13;;;3.00;;
17171;SDS011;8701;50.150;8.756;2023-07-09T18:20:40;7.70;;;3.07;;
17171;SDS011;8701;50.150;8.756;2023-07-09T18:24:45;5.40;;;3.43;;
17171;SDS011;8701;50.150;8.756;2023-07-09T18:28:49;5.53;;;3.03;;
17171;SDS011;8701;50.150;8.756;2023-07-09T18:32:53;4.53;;;2.90;;
17171;SDS011;8701;50.150;8.756;2023-07-09T18:36:57;6.63;;;3.27;;
17171;SDS011;8701;50.150;8.756;2023-07-09T18:40:59;6.13;;;3.40;;
17171;SDS011;8701;50.150;8.756;2023-07-09T18:45:01;3.73;;;3.27;;
17171;SDS011;8701;50.150;8.756;2023-07-09T18:49:06;5.20;;;3.47;;
17171;SDS011;8701;50.150;8.756;2023-07-09T18:53:09;6.03;;;3.17;;
17171;SDS011;8701;50.150;8.756;2023-07-09T18:57:14;3.73;;;2.60;;
17171;SDS011;8701;50.150;8.756;2023-07-09T19:01:17;5.63;;;3.50;;
17171;SDS011;8701;50.150;8.756;2023-07-09T19:05:23;4.77;;;3.33;;
17171;SDS011;8701;50.150;8.756;2023-07-09T19:09:27;8.70;;;4.87;;
17171;SDS011;8701;50.150;8.756;2023-07-09T19:13:30;7.10;;;5.00;;
17171;SDS011;8701;50.150;8.756;2023-07-09T19:17:33;6.10;;;3.77;;
17171;SDS011;8701;50.150;8.756;2023-07-09T19:21:37;4.60;;;2.93;;
17171;SDS011;8701;50.150;8.756;2023-07-09T19:25:39;5.47;;;3.03;;
17171;SDS011;8701;50.150;8.756;2023-07-09T19:29:41;6.67;;;3.60;;
17171;SDS011;8701;50.150;8.756;2023-07-09T19:33:44;5.27;;;3.60;;
17171;SDS011;8701;50.150;8.756;2023-07-09T19:37:48;5.90;;;3.30;;
17171;SDS011;8701;50.150;8.756;2023-07-09T19:41:50;6.53;;;3.40;;
17171;SDS011;8701;50.150;8.756;2023-07-09T19:45:54;6.60;;;3.63;;
17171;SDS011;8701;50.150;8.756;2023-07-09T19:49:57;4.83;;;3.50;;
17171;SDS011;8701;50.150;8.756;2023-07-09T19:54:01;5.70;;;3.43;;
17171;SDS011;8701;50.150;8.756;2023-07-09T19:58:11;9.30;;;4.03;;
17171;SDS011;8701;50.150;8.756;2023-07-09T20:02:17;3.13;;;2.60;;
17171;SDS011;8701;50.150;8.756;2023-07-09T20:06:21;4.80;;;2.20;;
17171;SDS011;8701;50.150;8.756;2023-07-09T20:10:24;3.20;;;2.40;;
17171;SDS011;8701;50.150;8.756;2023-07-09T20:14:29;2.60;;;2.40;;
17171;SDS011;8701;50.150;8.756;2023-07-09T20:18:31;6.77;;;3.60;;
17171;SDS011;8701;50.150;8.756;2023-07-09T20:22:33;3.70;;;2.80;;
17171;SDS011;8701;50.150;8.756;2023-07-09T20:26:37;6.67;;;3.30;;
17171;SDS011;8701;50.150;8.756;2023-07-09T20:30:39;6.23;;;3.73;;
17171;SDS011;8701;50.150;8.756;2023-07-09T20:34:41;4.97;;;2.77;;
17171;SDS011;8701;50.150;8.756;2023-07-09T20:38:44;4.83;;;3.50;;
17171;SDS011;8701;50.150;8.756;2023-07-09T20:46:57;4.33;;;3.03;;
17171;SDS011;8701;50.150;8.756;2023-07-09T20:51:00;3.50;;;2.70;;
17171;SDS011;8701;50.150;8.756;2023-07-09T20:55:02;5.03;;;3.53;;
17171;SDS011;8701;50.150;8.756;2023-07-09T20:59:09;5.70;;;2.90;;
17171;SDS011;8701;50.150;8.756;2023-07-09T21:03:18;5.23;;;3.20;;
17171;SDS011;8701;50.150;8.756;2023-07-09T21:07:22;6.00;;;3.57;;
17171;SDS011;8701;50.150;8.756;2023-07-09T21:11:25;5.27;;;3.10;;
17171;SDS011;8701;50.150;8.756;2023-07-09T21:15:28;9.37;;;3.50;;
17171;SDS011;8701;50.150;8.756;2023-07-09T21:19:34;5.07;;;2.73;;
17171;SDS011;8701;50.150;8.756;2023-07-09T21:23:37;4.00;;;2.63;;
17171;SDS011;8701;50.150;8.756;2023-07-09T21:27:39;4.23;;;3.10;;
17171;SDS011;8701;50.150;8.756;2023-07-09T21:31:42;4.37;;;3.10;;
17171;SDS011;8701;50.150;8.756;2023-07-09T21:35:46;4.77;;;3.07;;
17171;SDS011;8701;50.150;8.756;2023-07-09T21:39:48;5.23;;;3.43;;
17171;SDS011;8701;50.150;8.756;2023-07-09T21:43:51;3.67;;;2.90;;
17171;SDS011;8701;50.150;8.756;2023-07-09T21:47:53;4.40;;;3.50;;
17171;SDS011;8701;50.150;8.756;2023-07-09T21:51:57;5.93;;;3.53;;
17171;SDS011;8701;50.150;8.756;2023-07-09T21:55:59;7.47;;;4.07;;
17171;SDS011;8701;50.150;8.756;2023-07-09T22:00:02;10.27;;;4.20;;
17171;SDS011;8701;50.150;8.756;2023-07-09T22:04:14;5.67;;;3.80;;
17171;SDS011;8701;50.150;8.756;2023-07-09T22:08:19;6.40;;;3.37;;
17171;SDS011;8701;50.150;8.756;2023-07-09T22:12:23;6.87;;;3.50;;
17171;SDS011;8701;50.150;8.756;2023-07-09T22:16:26;5.00;;;3.17;;
17171;SDS011;8701;50.150;8.756;2023-07-09T22:20:28;6.77;;;4.10;;
17171;SDS011;8701;50.150;8.756;2023-07-09T22:24:32;6.03;;;3.77;;
17171;SDS011;8701;50.150;8.756;2023-07-09T22:28:34;4.47;;;3.70;;
17171;SDS011;8701;50.150;8.756;2023-07-09T22:32:36;8.37;;;4.00;;
17171;SDS011;8701;50.150;8.756;2023-07-09T22:36:39;6.13;;;4.13;;
17171;SDS011;8701;50.150;8.756;2023-07-09T22:40:42;5.47;;;3.80;;
17171;SDS011;8701;50.150;8.756;2023-07-09T22:44:44;4.67;;;3.57;;
17171;SDS011;8701;50.150;8.756;2023-07-09T22:48:46;5.20;;;4.00;;
17171;SDS011;8701;50.150;8.756;2023-07-09T22:52:53;8.10;;;4.57;;
17171;SDS011;8701;50.150;8.756;2023-07-09T22:56:56;6.87;;;4.00;;
17171;SDS011;8701;50.150;8.756;2023-07-09T23:01:00;4.60;;;3.70;;
17171;SDS011;8701;50.150;8.756;2023-07-09T23:05:12;16.03;;;3.93;;
17171;SDS011;8701;50.150;8.756;2023-07-09T23:09:15;10.03;;;4.27;;
17171;SDS011;8701;50.150;8.756;2023-07-09T23:13:18;6.30;;;3.40;;
17171;SDS011;8701;50.150;8.756;2023-07-09T23:17:21;5.10;;;3.47;;
17171;SDS011;8701;50.150;8.756;2023-07-09T23:21:24;9.97;;;3.70;;
17171;SDS011;8701;50.150;8.756;2023-07-09T23:25:26;10.77;;;4.60;;
17171;SDS011;8701;50.150;8.756;2023-07-09T23:29:30;10.40;;;4.20;;
17171;SDS011;8701;50.150;8.756;2023-07-09T23:33:33;5.53;;;3.80;;
17171;SDS011;8701;50.150;8.756;2023-07-09T23:37:37;4.10;;;3.53;;
17171;SDS011;8701;50.150;8.756;2023-07-09T23:41:40;6.30;;;4.00;;
17171;SDS011;8701;50.150;8.756;2023-07-09T23:45:46;6.40;;;3.93;;
17171;SDS011;8701;50.150;8.756;2023-07-09T23:49:48;9.53;;;3.80;;
17171;SDS011;8701;50.150;8.756;2023-07-09T23:53:51;5.50;;;3.70;;
17171;SDS011;8701;50.150;8.756;2023-07-09T23:57:54;6.07;;;3.73;;
